Florencia — IBPD — position and weather

sailwx.info

Track history (hours):
 
Tides and Currents Weather Stations Pressure Air Temp Water Temp Dewpoint Dewpoint Depression Visibility Wind Speed Wind Dir Waves Ship Positions

Florencia

Last reported at 2018-Feb-19 04:49 UTC. Time now 2018-Feb-20 00:04 UTC.
Position N 37°42' E 015°20'.

Length 186 m; draft 6.3 m.

Type: Passenger vessel. MMSI: 247105900.

Date/timePositionNaut miles runAvg speedWind from/ knotsBaromVisibWave heightAir tempDewpointWater temp
2018-Feb-19 04:49N 37°42' E 015°20'1220.8
2018-Feb-19 04:13N 37°53' E 015°27'620.7
2018-Feb-19 03:56N 37°59' E 015°29'920.7
2018-Feb-19 03:30N 38°07' E 015°34'1018.9
2018-Feb-19 03:00N 38°15' E 015°39'918.4
2018-Feb-19 02:30N 38°24' E 015°37'1121.0
2018-Feb-19 02:00N 38°34' E 015°32'1020.6
2018-Feb-19 01:30N 38°43' E 015°25'4320.6
2018-Feb-18 23:26N 39°22' E 015°02'6620.5
2018-Feb-18 20:12N 40°21' E 014°25'520.1
2018-Feb-18 19:57N 40°26' E 014°22'1119.4
2018-Feb-18 19:23N 40°36' E 014°17'820.1
2018-Feb-18 19:00N 40°44' E 014°17'7 2.1
2018-Feb-18 15:47N 40°50' E 014°16'0 0.0
2018-Feb-18 13:50N 40°50' E 014°16'0 0.0
2018-Feb-18 13:29N 40°50' E 014°16'0 0.0
2018-Feb-18 12:59N 40°50' E 014°16'0 0.0
2018-Feb-18 12:25N 40°50' E 014°16'0 0.0
2018-Feb-18 11:50N 40°50' E 014°16'0 0.0
2018-Feb-18 11:30N 40°50' E 014°16'0 0.0
2018-Feb-18 11:00N 40°50' E 014°16'0 0.3
2018-Feb-18 10:30N 40°50' E 014°16'714.8
2018-Feb-18 10:01N 40°43' E 014°17'1820.5
2018-Feb-18 09:08N 40°26' E 014°22'6621.0
2018-Feb-18 05:59N 39°26' E 014°60'2520.7
2018-Feb-18 04:47N 39°04' E 015°14'1020.7
2018-Feb-18 04:18N 38°55' E 015°19'620.8
2018-Feb-18 04:00N 38°49' E 015°23'1120.5
2018-Feb-18 03:28N 38°39' E 015°29'1020.5
2018-Feb-18 02:59N 38°31' E 015°35'920.0
2018-Feb-18 02:30N 38°22' E 015°40'815.3
2018-Feb-18 02:00N 38°14' E 015°38'919.2
2018-Feb-18 01:31N 38°05' E 015°34'1320.0
2018-Feb-18 00:52N 37°54' E 015°27'1120.2
2018-Feb-18 00:20N 37°44' E 015°21'3 0.2
2018-Feb-17 06:28N 37°42' E 015°20'1321.8
2018-Feb-17 05:53N 37°53' E 015°27'921.7
2018-Feb-17 05:29N 38°01' E 015°31'1021.6
2018-Feb-17 05:00N 38°11' E 015°36'917.2
2018-Feb-17 04:30N 38°18' E 015°41'1121.5
2018-Feb-17 04:00N 38°28' E 015°35'1121.6
2018-Feb-17 03:30N 38°38' E 015°29'1121.6
2018-Feb-17 02:58N 38°48' E 015°22'3721.3
2018-Feb-17 01:15N 39°21' E 015°02'721.4
2018-Feb-17 00:57N 39°27' E 014°58'8520.9
2018-Feb-16 20:52N 40°47' E 014°17'4 9.0
2018-Feb-16 20:26N 40°50' E 014°16'0 0.0
2018-Feb-16 08:43N 40°50' E 014°16'0 0.0
2018-Feb-16 08:29N 40°50' E 014°16'0 0.0
2018-Feb-16 07:26N 40°50' E 014°16'2 5.4
2018-Feb-16 07:00N 40°48' E 014°17'8620.7
2018-Feb-16 02:51N 39°29' E 014°59'720.5
2018-Feb-16 02:30N 39°22' E 015°03'3720.9
2018-Feb-16 00:43N 38°49' E 015°23'520.9
2018-Feb-16 00:29N 38°44' E 015°26'1020.5
2018-Feb-16 00:00N 38°35' E 015°31'1020.5
2018-Feb-15 23:31N 38°26' E 015°37'1119.2
2018-Feb-15 22:56N 38°16' E 015°41'717.1
2018-Feb-15 22:30N 38°09' E 015°36'1019.2
2018-Feb-15 22:00N 38°00' E 015°32'8 0.5
2018-Feb-15 06:11N 37°53' E 015°27'921.8
2018-Feb-15 05:46N 38°01' E 015°31'622.2
2018-Feb-15 05:30N 38°07' E 015°34'918.5
2018-Feb-15 05:00N 38°15' E 015°39'917.2
2018-Feb-15 04:30N 38°24' E 015°37'1121.3
2018-Feb-15 03:59N 38°34' E 015°31'1021.0
2018-Feb-15 03:30N 38°43' E 015°26'4320.8
2018-Feb-15 01:25N 39°22' E 015°01'6620.8
2018-Feb-14 22:14N 40°22' E 014°25'520.6
2018-Feb-14 21:59N 40°26' E 014°22'1020.8
2018-Feb-14 21:29N 40°36' E 014°17'1020.8
2018-Feb-14 21:00N 40°46' E 014°17'4 0.9
2018-Feb-14 16:18N 40°50' E 014°16'0 0.0
2018-Feb-14 15:48N 40°50' E 014°16'0 0.0
2018-Feb-14 15:24N 40°50' E 014°16'0 0.0
2018-Feb-14 14:54N 40°50' E 014°16'0 0.0
2018-Feb-14 14:06N 40°50' E 014°16'0 0.0
2018-Feb-14 13:36N 40°50' E 014°16'0 0.0
2018-Feb-14 13:12N 40°50' E 014°16'0 0.0
2018-Feb-14 12:54N 40°50' E 014°16'0 0.0
2018-Feb-14 12:12N 40°50' E 014°16'0 0.0
2018-Feb-14 12:00N 40°50' E 014°16'0 0.0
2018-Feb-14 11:30N 40°50' E 014°16'0 0.0
2018-Feb-14 10:54N 40°50' E 014°16'0 0.1
2018-Feb-14 10:19N 40°50' E 014°16'2 5.2
2018-Feb-14 10:00N 40°49' E 014°17'1120.9
2018-Feb-14 09:30N 40°39' E 014°17'1320.7
2018-Feb-14 08:54N 40°26' E 014°22'6521.0
2018-Feb-14 05:48N 39°28' E 015°00'620.5
2018-Feb-14 05:30N 39°23' E 015°04'3519.9
2018-Feb-14 03:43N 38°51' E 015°23'520.2
2018-Feb-14 03:28N 38°46' E 015°25'919.8
2018-Feb-14 03:00N 38°38' E 015°30'1019.6
2018-Feb-14 02:30N 38°29' E 015°35'1019.7
2018-Feb-14 02:00N 38°20' E 015°40'917.0
2018-Feb-14 01:30N 38°12' E 015°37'1120.0
2018-Feb-14 00:58N 38°02' E 015°32'1020.8
2018-Feb-14 00:30N 37°53' E 015°27'1 0.0
2018-Feb-13 06:07N 37°52' E 015°26'320.9
2018-Feb-13 06:00N 37°55' E 015°28'1121.4
2018-Feb-13 05:29N 38°04' E 015°34'1019.7
2018-Feb-13 05:00N 38°14' E 015°36'715.1
2018-Feb-13 04:30N 38°21' E 015°38'1120.1
2018-Feb-13 03:58N 38°31' E 015°32'1020.9
2018-Feb-13 03:29N 38°40' E 015°26'1221.0
2018-Feb-13 02:54N 38°51' E 015°20'3321.2
2018-Feb-13 01:20N 39°21' E 015°02'9619.2
2018-Feb-12 20:19N 40°50' E 014°16'0 0.0
2018-Feb-12 19:49N 40°50' E 014°16'0 0.0
2018-Feb-12 19:07N 40°50' E 014°16'0 0.0
2018-Feb-12 18:49N 40°50' E 014°16'0 0.0
2018-Feb-12 18:22N 40°50' E 014°16'0 0.0
2018-Feb-12 17:37N 40°50' E 014°16'0 0.0
2018-Feb-12 17:19N 40°50' E 014°16'0 0.0
2018-Feb-12 16:49N 40°50' E 014°16'0 0.0
2018-Feb-12 16:19N 40°50' E 014°16'0 0.0
2018-Feb-12 15:07N 40°50' E 014°16'0 0.0
2018-Feb-12 14:07N 40°50' E 014°16'0 0.0
2018-Feb-12 13:55N 40°50' E 014°16'0 0.0
2018-Feb-12 13:25N 40°50' E 014°16'0 0.0
2018-Feb-12 12:55N 40°50' E 014°16'0 0.0
2018-Feb-12 12:25N 40°50' E 014°16'0 0.0
2018-Feb-12 12:00N 40°50' E 014°16'0 0.0
2018-Feb-12 11:30N 40°50' E 014°16'0 0.0
2018-Feb-12 11:00N 40°50' E 014°16'0 0.0
2018-Feb-12 10:29N 40°50' E 014°16'0 0.0
2018-Feb-12 10:00N 40°50' E 014°16'0 0.0
2018-Feb-12 09:30N 40°50' E 014°16'0 0.0
2018-Feb-12 09:00N 40°50' E 014°16'0 0.0
2018-Feb-12 08:30N 40°50' E 014°16'0 0.0
2018-Feb-12 08:00N 40°50' E 014°16'0 0.0
2018-Feb-12 07:29N 40°50' E 014°16'8918.2
2018-Feb-12 02:35N 39°28' E 014°59'220.8
2018-Feb-12 02:29N 39°26' E 014°60'4020.9
2018-Feb-12 00:33N 38°50' E 015°23'221.5
2018-Feb-12 00:28N 38°48' E 015°24'1021.0
2018-Feb-11 23:59N 38°39' E 015°30'1020.7
2018-Feb-11 23:30N 38°30' E 015°35'1121.0
2018-Feb-11 23:00N 38°21' E 015°41'714.6
2018-Feb-11 22:31N 38°14' E 015°37'1019.8
2018-Feb-11 22:00N 38°04' E 015°34'1221.1
2018-Feb-11 21:26N 37°54' E 015°28'13 0.9
2018-Feb-11 06:30N 37°42' E 015°20'1321.8
2018-Feb-11 05:55N 37°53' E 015°27'921.9
2018-Feb-11 05:30N 38°02' E 015°32'1021.3
2018-Feb-11 05:00N 38°11' E 015°36'816.3
2018-Feb-11 04:30N 38°19' E 015°40'1019.1
2018-Feb-11 04:00N 38°28' E 015°35'1120.9
2018-Feb-11 03:29N 38°38' E 015°29'1221.2
2018-Feb-11 02:55N 38°48' E 015°22'3721.7
2018-Feb-11 01:13N 39°21' E 015°01'521.2
2018-Feb-11 01:00N 39°26' E 014°59'5721.3
2018-Feb-10 22:20N 40°17' E 014°27'2121.2
2018-Feb-10 21:22N 40°36' E 014°17'821.4
2018-Feb-10 21:00N 40°44' E 014°17'713.8
2018-Feb-10 20:31N 40°50' E 014°16'0 0.0
2018-Feb-10 09:30N 40°50' E 014°16'0 0.0
2018-Feb-10 08:20N 40°50' E 014°16'0 0.0
2018-Feb-10 07:58N 40°50' E 014°16'0 0.0
2018-Feb-10 07:27N 40°50' E 014°16'0 0.4
2018-Feb-10 07:00N 40°50' E 014°16'815.7
2018-Feb-10 06:30N 40°43' E 014°17'8121.2
2018-Feb-10 02:41N 39°28' E 014°58'422.1
2018-Feb-10 02:30N 39°24' E 015°01'4021.4
2018-Feb-10 00:37N 38°48' E 015°23'322.1
2018-Feb-10 00:30N 38°46' E 015°24'1121.6
2018-Feb-10 00:00N 38°36' E 015°30'1121.3
2018-Feb-09 23:30N 38°26' E 015°37'1117.8
2018-Feb-09 22:52N 38°15' E 015°41'220.6
2018-Feb-09 22:46N 38°14' E 015°38'13 0.8
2018-Feb-09 05:30N 38°02' E 015°32'  
Track history (hours):
 
Tides and Currents Weather Stations Pressure Air Temp Water Temp Dewpoint Dewpoint Depression Visibility Wind Speed Wind Dir Waves Ship Positions

Florencia

Last reported at 2018-Feb-19 04:49 UTC. Time now 2018-Feb-20 00:04 UTC.
Position N 37°42' E 015°20'.

Length 186 m; draft 6.3 m.

Type: Passenger vessel. MMSI: 247105900.

Date/timePositionNaut miles runAvg speedWind from/ knotsBaromVisibWave heightAir tempDewpointWater temp
2018-Feb-19 04:49N 37°42' E 015°20'1220.8
2018-Feb-19 04:13N 37°53' E 015°27'620.7
2018-Feb-19 03:56N 37°59' E 015°29'920.7
2018-Feb-19 03:30N 38°07' E 015°34'1018.9
2018-Feb-19 03:00N 38°15' E 015°39'918.4
2018-Feb-19 02:30N 38°24' E 015°37'1121.0
2018-Feb-19 02:00N 38°34' E 015°32'1020.6
2018-Feb-19 01:30N 38°43' E 015°25'4320.6
2018-Feb-18 23:26N 39°22' E 015°02'6620.5
2018-Feb-18 20:12N 40°21' E 014°25'520.1
2018-Feb-18 19:57N 40°26' E 014°22'1119.4
2018-Feb-18 19:23N 40°36' E 014°17'820.1
2018-Feb-18 19:00N 40°44' E 014°17'7 2.1
2018-Feb-18 15:47N 40°50' E 014°16'0 0.0
2018-Feb-18 13:50N 40°50' E 014°16'0 0.0
2018-Feb-18 13:29N 40°50' E 014°16'0 0.0
2018-Feb-18 12:59N 40°50' E 014°16'0 0.0
2018-Feb-18 12:25N 40°50' E 014°16'0 0.0
2018-Feb-18 11:50N 40°50' E 014°16'0 0.0
2018-Feb-18 11:30N 40°50' E 014°16'0 0.0
2018-Feb-18 11:00N 40°50' E 014°16'0 0.3
2018-Feb-18 10:30N 40°50' E 014°16'714.8
2018-Feb-18 10:01N 40°43' E 014°17'1820.5
2018-Feb-18 09:08N 40°26' E 014°22'6621.0
2018-Feb-18 05:59N 39°26' E 014°60'2520.7
2018-Feb-18 04:47N 39°04' E 015°14'1020.7
2018-Feb-18 04:18N 38°55' E 015°19'620.8
2018-Feb-18 04:00N 38°49' E 015°23'1120.5
2018-Feb-18 03:28N 38°39' E 015°29'1020.5
2018-Feb-18 02:59N 38°31' E 015°35'920.0
2018-Feb-18 02:30N 38°22' E 015°40'815.3
2018-Feb-18 02:00N 38°14' E 015°38'919.2
2018-Feb-18 01:31N 38°05' E 015°34'1320.0
2018-Feb-18 00:52N 37°54' E 015°27'1120.2
2018-Feb-18 00:20N 37°44' E 015°21'3 0.2
2018-Feb-17 06:28N 37°42' E 015°20'1321.8
2018-Feb-17 05:53N 37°53' E 015°27'921.7
2018-Feb-17 05:29N 38°01' E 015°31'1021.6
2018-Feb-17 05:00N 38°11' E 015°36'917.2
2018-Feb-17 04:30N 38°18' E 015°41'1121.5
2018-Feb-17 04:00N 38°28' E 015°35'1121.6
2018-Feb-17 03:30N 38°38' E 015°29'1121.6
2018-Feb-17 02:58N 38°48' E 015°22'3721.3
2018-Feb-17 01:15N 39°21' E 015°02'721.4
2018-Feb-17 00:57N 39°27' E 014°58'8520.9
2018-Feb-16 20:52N 40°47' E 014°17'4 9.0
2018-Feb-16 20:26N 40°50' E 014°16'0 0.0
2018-Feb-16 08:43N 40°50' E 014°16'0 0.0
2018-Feb-16 08:29N 40°50' E 014°16'0 0.0
2018-Feb-16 07:26N 40°50' E 014°16'2 5.4
2018-Feb-16 07:00N 40°48' E 014°17'8620.7
2018-Feb-16 02:51N 39°29' E 014°59'720.5
2018-Feb-16 02:30N 39°22' E 015°03'3720.9
2018-Feb-16 00:43N 38°49' E 015°23'520.9
2018-Feb-16 00:29N 38°44' E 015°26'1020.5
2018-Feb-16 00:00N 38°35' E 015°31'1020.5
2018-Feb-15 23:31N 38°26' E 015°37'1119.2
2018-Feb-15 22:56N 38°16' E 015°41'717.1
2018-Feb-15 22:30N 38°09' E 015°36'1019.2
2018-Feb-15 22:00N 38°00' E 015°32'8 0.5
2018-Feb-15 06:11N 37°53' E 015°27'921.8
2018-Feb-15 05:46N 38°01' E 015°31'622.2
2018-Feb-15 05:30N 38°07' E 015°34'918.5
2018-Feb-15 05:00N 38°15' E 015°39'917.2
2018-Feb-15 04:30N 38°24' E 015°37'1121.3
2018-Feb-15 03:59N 38°34' E 015°31'1021.0
2018-Feb-15 03:30N 38°43' E 015°26'4320.8
2018-Feb-15 01:25N 39°22' E 015°01'6620.8
2018-Feb-14 22:14N 40°22' E 014°25'520.6
2018-Feb-14 21:59N 40°26' E 014°22'1020.8
2018-Feb-14 21:29N 40°36' E 014°17'1020.8
2018-Feb-14 21:00N 40°46' E 014°17'4 0.9
2018-Feb-14 16:18N 40°50' E 014°16'0 0.0
2018-Feb-14 15:48N 40°50' E 014°16'0 0.0
2018-Feb-14 15:24N 40°50' E 014°16'0 0.0
2018-Feb-14 14:54N 40°50' E 014°16'0 0.0
2018-Feb-14 14:06N 40°50' E 014°16'0 0.0
2018-Feb-14 13:36N 40°50' E 014°16'0 0.0
2018-Feb-14 13:12N 40°50' E 014°16'0 0.0
2018-Feb-14 12:54N 40°50' E 014°16'0 0.0
2018-Feb-14 12:12N 40°50' E 014°16'0 0.0
2018-Feb-14 12:00N 40°50' E 014°16'0 0.0
2018-Feb-14 11:30N 40°50' E 014°16'0 0.0
2018-Feb-14 10:54N 40°50' E 014°16'0 0.1
2018-Feb-14 10:19N 40°50' E 014°16'2 5.2
2018-Feb-14 10:00N 40°49' E 014°17'1120.9
2018-Feb-14 09:30N 40°39' E 014°17'1320.7
2018-Feb-14 08:54N 40°26' E 014°22'6521.0
2018-Feb-14 05:48N 39°28' E 015°00'620.5
2018-Feb-14 05:30N 39°23' E 015°04'3519.9
2018-Feb-14 03:43N 38°51' E 015°23'520.2
2018-Feb-14 03:28N 38°46' E 015°25'919.8
2018-Feb-14 03:00N 38°38' E 015°30'1019.6
2018-Feb-14 02:30N 38°29' E 015°35'1019.7
2018-Feb-14 02:00N 38°20' E 015°40'917.0
2018-Feb-14 01:30N 38°12' E 015°37'1120.0
2018-Feb-14 00:58N 38°02' E 015°32'1020.8
2018-Feb-14 00:30N 37°53' E 015°27'1 0.0
2018-Feb-13 06:07N 37°52' E 015°26'320.9
2018-Feb-13 06:00N 37°55' E 015°28'1121.4
2018-Feb-13 05:29N 38°04' E 015°34'1019.7
2018-Feb-13 05:00N 38°14' E 015°36'715.1
2018-Feb-13 04:30N 38°21' E 015°38'1120.1
2018-Feb-13 03:58N 38°31' E 015°32'1020.9
2018-Feb-13 03:29N 38°40' E 015°26'1221.0
2018-Feb-13 02:54N 38°51' E 015°20'3321.2
2018-Feb-13 01:20N 39°21' E 015°02'9619.2
2018-Feb-12 20:19N 40°50' E 014°16'0 0.0
2018-Feb-12 19:49N 40°50' E 014°16'0 0.0
2018-Feb-12 19:07N 40°50' E 014°16'0 0.0
2018-Feb-12 18:49N 40°50' E 014°16'0 0.0
2018-Feb-12 18:22N 40°50' E 014°16'0 0.0
2018-Feb-12 17:37N 40°50' E 014°16'0 0.0
2018-Feb-12 17:19N 40°50' E 014°16'0 0.0
2018-Feb-12 16:49N 40°50' E 014°16'0 0.0
2018-Feb-12 16:19N 40°50' E 014°16'0 0.0
2018-Feb-12 15:07N 40°50' E 014°16'0 0.0
2018-Feb-12 14:07N 40°50' E 014°16'0 0.0
2018-Feb-12 13:55N 40°50' E 014°16'0 0.0
2018-Feb-12 13:25N 40°50' E 014°16'0 0.0
2018-Feb-12 12:55N 40°50' E 014°16'0 0.0
2018-Feb-12 12:25N 40°50' E 014°16'0 0.0
2018-Feb-12 12:00N 40°50' E 014°16'0 0.0
2018-Feb-12 11:30N 40°50' E 014°16'0 0.0
2018-Feb-12 11:00N 40°50' E 014°16'0 0.0
2018-Feb-12 10:29N 40°50' E 014°16'0 0.0
2018-Feb-12 10:00N 40°50' E 014°16'0 0.0
2018-Feb-12 09:30N 40°50' E 014°16'0 0.0
2018-Feb-12 09:00N 40°50' E 014°16'0 0.0
2018-Feb-12 08:30N 40°50' E 014°16'0 0.0
2018-Feb-12 08:00N 40°50' E 014°16'0 0.0
2018-Feb-12 07:29N 40°50' E 014°16'8918.2
2018-Feb-12 02:35N 39°28' E 014°59'220.8
2018-Feb-12 02:29N 39°26' E 014°60'4020.9
2018-Feb-12 00:33N 38°50' E 015°23'221.5
2018-Feb-12 00:28N 38°48' E 015°24'1021.0
2018-Feb-11 23:59N 38°39' E 015°30'1020.7
2018-Feb-11 23:30N 38°30' E 015°35'1121.0
2018-Feb-11 23:00N 38°21' E 015°41'714.6
2018-Feb-11 22:31N 38°14' E 015°37'1019.8
2018-Feb-11 22:00N 38°04' E 015°34'1221.1
2018-Feb-11 21:26N 37°54' E 015°28'13 0.9
2018-Feb-11 06:30N 37°42' E 015°20'1321.8
2018-Feb-11 05:55N 37°53' E 015°27'921.9
2018-Feb-11 05:30N 38°02' E 015°32'1021.3
2018-Feb-11 05:00N 38°11' E 015°36'816.3
2018-Feb-11 04:30N 38°19' E 015°40'1019.1
2018-Feb-11 04:00N 38°28' E 015°35'1120.9
2018-Feb-11 03:29N 38°38' E 015°29'1221.2
2018-Feb-11 02:55N 38°48' E 015°22'3721.7
2018-Feb-11 01:13N 39°21' E 015°01'521.2
2018-Feb-11 01:00N 39°26' E 014°59'5721.3
2018-Feb-10 22:20N 40°17' E 014°27'2121.2
2018-Feb-10 21:22N 40°36' E 014°17'821.4
2018-Feb-10 21:00N 40°44' E 014°17'713.8
2018-Feb-10 20:31N 40°50' E 014°16'0 0.0
2018-Feb-10 09:30N 40°50' E 014°16'0 0.0
2018-Feb-10 08:20N 40°50' E 014°16'0 0.0
2018-Feb-10 07:58N 40°50' E 014°16'0 0.0
2018-Feb-10 07:27N 40°50' E 014°16'0 0.4
2018-Feb-10 07:00N 40°50' E 014°16'815.7
2018-Feb-10 06:30N 40°43' E 014°17'8121.2
2018-Feb-10 02:41N 39°28' E 014°58'422.1
2018-Feb-10 02:30N 39°24' E 015°01'4021.4
2018-Feb-10 00:37N 38°48' E 015°23'322.1
2018-Feb-10 00:30N 38°46' E 015°24'1121.6
2018-Feb-10 00:00N 38°36' E 015°30'1121.3
2018-Feb-09 23:30N 38°26' E 015°37'1117.8
2018-Feb-09 22:52N 38°15' E 015°41'220.6
2018-Feb-09 22:46N 38°14' E 015°38'13 0.8
2018-Feb-09 05:30N 38°02' E 015°32'  

Dump ship's entire track history